sensor_id;sensor_type;location;lat;lon;timestamp;pressure;altitude;pressure_sealevel;temperature
64904;BMP280;51401;48.882;12.598;2023-11-21T00:02:24;64152.00;;;-137.53
64904;BMP280;51401;48.882;12.598;2023-11-21T00:04:50;64152.00;;;-137.53
64904;BMP280;51401;48.882;12.598;2023-11-21T00:07:16;64146.03;;;-137.53
64904;BMP280;51401;48.882;12.598;2023-11-21T00:09:41;64152.00;;;-137.53
64904;BMP280;51401;48.882;12.598;2023-11-21T00:12:08;64148.03;;;-137.53
64904;BMP280;51401;48.882;12.598;2023-11-21T00:14:39;64152.00;;;-137.53
64904;BMP280;51401;48.882;12.598;2023-11-21T00:17:04;64148.03;;;-137.53
64904;BMP280;51401;48.882;12.598;2023-11-21T00:19:31;64150.03;;;-137.53
64904;BMP280;51401;48.882;12.598;2023-11-21T00:21:56;64152.00;;;-137.53
64904;BMP280;51401;48.882;12.598;2023-11-21T00:24:23;64152.00;;;-137.53
64904;BMP280;51401;48.882;12.598;2023-11-21T00:26:50;64150.03;;;-137.53
64904;BMP280;51401;48.882;12.598;2023-11-21T00:29:15;64148.03;;;-137.53
64904;BMP280;51401;48.882;12.598;2023-11-21T00:31:45;64148.03;;;-137.53
64904;BMP280;51401;48.882;12.598;2023-11-21T00:34:12;64152.00;;;-137.53
64904;BMP280;51401;48.882;12.598;2023-11-21T00:36:40;64150.03;;;-137.53
64904;BMP280;51401;48.882;12.598;2023-11-21T00:39:05;64154.00;;;-137.53
64904;BMP280;51401;48.882;12.598;2023-11-21T00:41:31;64150.03;;;-137.53
64904;BMP280;51401;48.882;12.598;2023-11-21T00:43:57;64152.00;;;-137.53
64904;BMP280;51401;48.882;12.598;2023-11-21T00:46:22;64150.03;;;-137.53
64904;BMP280;51401;48.882;12.598;2023-11-21T00:48:49;64148.03;;;-137.53
64904;BMP280;51401;48.882;12.598;2023-11-21T00:51:14;64148.03;;;-137.53
64904;BMP280;51401;48.882;12.598;2023-11-21T00:53:39;64150.03;;;-137.53
64904;BMP280;51401;48.882;12.598;2023-11-21T00:56:05;64150.03;;;-137.53
64904;BMP280;51401;48.882;12.598;2023-11-21T00:58:31;64150.03;;;-137.53
64904;BMP280;51401;48.882;12.598;2023-11-21T01:00:56;64148.03;;;-137.53
64904;BMP280;51401;48.882;12.598;2023-11-21T01:03:21;64148.03;;;-137.53
64904;BMP280;51401;48.882;12.598;2023-11-21T01:05:50;64150.03;;;-137.53
64904;BMP280;51401;48.882;12.598;2023-11-21T01:08:15;64148.03;;;-137.53
64904;BMP280;51401;48.882;12.598;2023-11-21T01:10:40;64150.03;;;-137.53
64904;BMP280;51401;48.882;12.598;2023-11-21T01:13:06;64152.00;;;-137.53
64904;BMP280;51401;48.882;12.598;2023-11-21T01:15:32;64148.03;;;-137.53
64904;BMP280;51401;48.882;12.598;2023-11-21T01:17:57;64152.00;;;-137.53
64904;BMP280;51401;48.882;12.598;2023-11-21T01:20:23;64150.03;;;-137.53
64904;BMP280;51401;48.882;12.598;2023-11-21T01:22:48;64148.03;;;-137.53
64904;BMP280;51401;48.882;12.598;2023-11-21T01:25:16;64150.03;;;-137.53
64904;BMP280;51401;48.882;12.598;2023-11-21T01:27:42;64148.03;;;-137.53
64904;BMP280;51401;48.882;12.598;2023-11-21T01:30:08;64148.03;;;-137.53
64904;BMP280;51401;48.882;12.598;2023-11-21T01:32:36;64152.00;;;-137.53
64904;BMP280;51401;48.882;12.598;2023-11-21T01:35:01;64148.03;;;-137.53
64904;BMP280;51401;48.882;12.598;2023-11-21T01:37:26;64152.00;;;-137.53
64904;BMP280;51401;48.882;12.598;2023-11-21T01:39:53;64152.00;;;-137.53
64904;BMP280;51401;48.882;12.598;2023-11-21T01:42:20;64152.00;;;-137.53
64904;BMP280;51401;48.882;12.598;2023-11-21T01:44:45;64152.00;;;-137.53
64904;BMP280;51401;48.882;12.598;2023-11-21T01:47:11;64152.00;;;-137.53
64904;BMP280;51401;48.882;12.598;2023-11-21T01:49:38;64152.00;;;-137.53
64904;BMP280;51401;48.882;12.598;2023-11-21T01:52:03;64150.03;;;-137.53
64904;BMP280;51401;48.882;12.598;2023-11-21T01:54:29;64152.00;;;-137.53
64904;BMP280;51401;48.882;12.598;2023-11-21T01:57:01;64150.03;;;-137.53
64904;BMP280;51401;48.882;12.598;2023-11-21T01:59:30;64152.00;;;-137.53
64904;BMP280;51401;48.882;12.598;2023-11-21T02:01:59;64152.00;;;-137.53
64904;BMP280;51401;48.882;12.598;2023-11-21T02:04:24;64152.00;;;-137.53
64904;BMP280;51401;48.882;12.598;2023-11-21T02:06:50;64152.00;;;-137.53
64904;BMP280;51401;48.882;12.598;2023-11-21T02:09:16;64152.00;;;-137.53
64904;BMP280;51401;48.882;12.598;2023-11-21T02:11:42;64150.03;;;-137.53
64904;BMP280;51401;48.882;12.598;2023-11-21T02:14:07;64152.00;;;-137.53
64904;BMP280;51401;48.882;12.598;2023-11-21T02:16:34;64150.03;;;-137.53
64904;BMP280;51401;48.882;12.598;2023-11-21T02:19:01;64150.03;;;-137.53
64904;BMP280;51401;48.882;12.598;2023-11-21T02:21:27;64150.03;;;-137.53
64904;BMP280;51401;48.882;12.598;2023-11-21T02:23:52;64154.00;;;-137.53
64904;BMP280;51401;48.882;12.598;2023-11-21T02:26:18;64152.00;;;-137.53
64904;BMP280;51401;48.882;12.598;2023-11-21T02:28:43;64154.00;;;-137.53
64904;BMP280;51401;48.882;12.598;2023-11-21T02:31:08;64152.00;;;-137.53
64904;BMP280;51401;48.882;12.598;2023-11-21T02:33:34;64154.00;;;-137.53
64904;BMP280;51401;48.882;12.598;2023-11-21T02:36:02;64150.03;;;-137.53
64904;BMP280;51401;48.882;12.598;2023-11-21T02:38:28;64154.00;;;-137.53
64904;BMP280;51401;48.882;12.598;2023-11-21T02:40:53;64152.00;;;-137.53
64904;BMP280;51401;48.882;12.598;2023-11-21T02:43:19;64152.00;;;-137.53
64904;BMP280;51401;48.882;12.598;2023-11-21T02:45:44;64154.00;;;-137.53
64904;BMP280;51401;48.882;12.598;2023-11-21T02:48:09;64152.00;;;-137.53
64904;BMP280;51401;48.882;12.598;2023-11-21T02:50:35;64150.03;;;-137.53
64904;BMP280;51401;48.882;12.598;2023-11-21T02:53:00;64150.03;;;-137.53
64904;BMP280;51401;48.882;12.598;2023-11-21T02:55:27;64154.00;;;-137.53
64904;BMP280;51401;48.882;12.598;2023-11-21T02:57:53;64148.03;;;-137.53
64904;BMP280;51401;48.882;12.598;2023-11-21T03:00:18;64152.00;;;-137.53
64904;BMP280;51401;48.882;12.598;2023-11-21T03:02:43;64152.00;;;-137.53
64904;BMP280;51401;48.882;12.598;2023-11-21T03:05:09;64150.03;;;-137.53
64904;BMP280;51401;48.882;12.598;2023-11-21T03:07:36;64148.03;;;-137.53
64904;BMP280;51401;48.882;12.598;2023-11-21T03:10:01;64150.03;;;-137.53
64904;BMP280;51401;48.882;12.598;2023-11-21T03:12:26;64152.00;;;-137.53
64904;BMP280;51401;48.882;12.598;2023-11-21T03:14:52;64152.00;;;-137.53
64904;BMP280;51401;48.882;12.598;2023-11-21T03:17:17;64152.00;;;-137.53
64904;BMP280;51401;48.882;12.598;2023-11-21T03:19:42;64148.03;;;-137.53
64904;BMP280;51401;48.882;12.598;2023-11-21T03:22:08;64152.00;;;-137.53
64904;BMP280;51401;48.882;12.598;2023-11-21T03:24:34;64150.03;;;-137.53
64904;BMP280;51401;48.882;12.598;2023-11-21T03:26:59;64152.00;;;-137.53
64904;BMP280;51401;48.882;12.598;2023-11-21T03:29:25;64154.00;;;-137.53
64904;BMP280;51401;48.882;12.598;2023-11-21T03:31:51;64152.00;;;-137.53
64904;BMP280;51401;48.882;12.598;2023-11-21T03:34:27;64150.03;;;-137.53
64904;BMP280;51401;48.882;12.598;2023-11-21T03:36:53;64148.03;;;-137.53
64904;BMP280;51401;48.882;12.598;2023-11-21T03:39:21;64152.00;;;-137.53
64904;BMP280;51401;48.882;12.598;2023-11-21T03:41:47;64146.03;;;-137.53
64904;BMP280;51401;48.882;12.598;2023-11-21T03:44:13;64148.03;;;-137.53
64904;BMP280;51401;48.882;12.598;2023-11-21T03:46:38;64152.00;;;-137.53
64904;BMP280;51401;48.882;12.598;2023-11-21T03:49:04;64154.00;;;-137.53
64904;BMP280;51401;48.882;12.598;2023-11-21T03:51:29;64150.03;;;-137.53
64904;BMP280;51401;48.882;12.598;2023-11-21T03:53:54;64152.00;;;-137.53
64904;BMP280;51401;48.882;12.598;2023-11-21T03:56:19;64152.00;;;-137.53
64904;BMP280;51401;48.882;12.598;2023-11-21T03:58:47;64152.00;;;-137.53
64904;BMP280;51401;48.882;12.598;2023-11-21T04:01:23;64154.00;;;-137.53
64904;BMP280;51401;48.882;12.598;2023-11-21T04:03:49;64152.00;;;-137.53
64904;BMP280;51401;48.882;12.598;2023-11-21T04:06:15;64152.00;;;-137.53
64904;BMP280;51401;48.882;12.598;2023-11-21T04:08:43;64152.00;;;-137.53
64904;BMP280;51401;48.882;12.598;2023-11-21T04:11:09;64154.00;;;-137.53
64904;BMP280;51401;48.882;12.598;2023-11-21T04:13:37;64150.03;;;-137.53
64904;BMP280;51401;48.882;12.598;2023-11-21T04:16:02;64150.03;;;-137.53
64904;BMP280;51401;48.882;12.598;2023-11-21T04:18:28;64150.03;;;-137.53
64904;BMP280;51401;48.882;12.598;2023-11-21T04:20:53;64154.00;;;-137.53
64904;BMP280;51401;48.882;12.598;2023-11-21T04:23:19;64150.03;;;-137.53
64904;BMP280;51401;48.882;12.598;2023-11-21T04:25:44;64155.97;;;-137.53
64904;BMP280;51401;48.882;12.598;2023-11-21T04:28:09;64154.00;;;-137.53
64904;BMP280;51401;48.882;12.598;2023-11-21T04:30:35;64150.03;;;-137.53
64904;BMP280;51401;48.882;12.598;2023-11-21T04:33:00;64152.00;;;-137.53
64904;BMP280;51401;48.882;12.598;2023-11-21T04:35:25;64150.03;;;-137.53
64904;BMP280;51401;48.882;12.598;2023-11-21T04:37:50;64152.00;;;-137.53
64904;BMP280;51401;48.882;12.598;2023-11-21T04:40:16;64154.00;;;-137.53
64904;BMP280;51401;48.882;12.598;2023-11-21T04:42:41;64148.03;;;-137.53
64904;BMP280;51401;48.882;12.598;2023-11-21T04:45:08;64152.00;;;-137.53
64904;BMP280;51401;48.882;12.598;2023-11-21T04:47:34;64155.97;;;-137.53
64904;BMP280;51401;48.882;12.598;2023-11-21T04:50:00;64152.00;;;-137.53
64904;BMP280;51401;48.882;12.598;2023-11-21T04:52:25;64152.00;;;-137.53
64904;BMP280;51401;48.882;12.598;2023-11-21T04:54:50;64154.00;;;-137.53
64904;BMP280;51401;48.882;12.598;2023-11-21T04:57:16;64152.00;;;-137.53
64904;BMP280;51401;48.882;12.598;2023-11-21T04:59:43;64150.03;;;-137.53
64904;BMP280;51401;48.882;12.598;2023-11-21T05:02:08;64152.00;;;-137.53
64904;BMP280;51401;48.882;12.598;2023-11-21T05:04:33;64154.00;;;-137.53
64904;BMP280;51401;48.882;12.598;2023-11-21T05:06:59;64152.00;;;-137.53
64904;BMP280;51401;48.882;12.598;2023-11-21T05:09:25;64152.00;;;-137.53
64904;BMP280;51401;48.882;12.598;2023-11-21T05:11:50;64152.00;;;-137.53
64904;BMP280;51401;48.882;12.598;2023-11-21T05:14:16;64150.03;;;-137.53
64904;BMP280;51401;48.882;12.598;2023-11-21T05:16:43;64152.00;;;-137.53
64904;BMP280;51401;48.882;12.598;2023-11-21T05:19:09;64152.00;;;-137.53
64904;BMP280;51401;48.882;12.598;2023-11-21T05:21:34;64150.03;;;-137.53
64904;BMP280;51401;48.882;12.598;2023-11-21T05:24:01;64150.03;;;-137.53
64904;BMP280;51401;48.882;12.598;2023-11-21T05:26:26;64150.03;;;-137.53
64904;BMP280;51401;48.882;12.598;2023-11-21T05:28:51;64148.03;;;-137.53
64904;BMP280;51401;48.882;12.598;2023-11-21T05:31:20;64150.03;;;-137.53
64904;BMP280;51401;48.882;12.598;2023-11-21T05:33:45;64152.00;;;-137.53
64904;BMP280;51401;48.882;12.598;2023-11-21T05:36:10;64152.00;;;-137.53
64904;BMP280;51401;48.882;12.598;2023-11-21T05:38:36;64150.03;;;-137.53
64904;BMP280;51401;48.882;12.598;2023-11-21T05:41:02;64148.03;;;-137.53
64904;BMP280;51401;48.882;12.598;2023-11-21T05:43:28;64150.03;;;-137.53
64904;BMP280;51401;48.882;12.598;2023-11-21T05:45:55;64150.03;;;-137.53
64904;BMP280;51401;48.882;12.598;2023-11-21T05:48:21;64150.03;;;-137.53
64904;BMP280;51401;48.882;12.598;2023-11-21T05:50:47;64148.03;;;-137.53
64904;BMP280;51401;48.882;12.598;2023-11-21T05:53:14;64148.03;;;-137.53
64904;BMP280;51401;48.882;12.598;2023-11-21T05:55:41;64150.03;;;-137.53
64904;BMP280;51401;48.882;12.598;2023-11-21T05:58:06;64150.03;;;-137.53
64904;BMP280;51401;48.882;12.598;2023-11-21T06:00:32;64152.00;;;-137.53
64904;BMP280;51401;48.882;12.598;2023-11-21T06:02:58;64152.00;;;-137.53
64904;BMP280;51401;48.882;12.598;2023-11-21T06:05:25;64150.03;;;-137.53
64904;BMP280;51401;48.882;12.598;2023-11-21T06:07:51;64150.03;;;-137.53
64904;BMP280;51401;48.882;12.598;2023-11-21T06:10:17;64150.03;;;-137.53
64904;BMP280;51401;48.882;12.598;2023-11-21T06:12:44;64152.00;;;-137.53
64904;BMP280;51401;48.882;12.598;2023-11-21T06:15:10;64148.03;;;-137.53
64904;BMP280;51401;48.882;12.598;2023-11-21T06:17:39;64152.00;;;-137.53
64904;BMP280;51401;48.882;12.598;2023-11-21T06:20:09;64150.03;;;-137.53
64904;BMP280;51401;48.882;12.598;2023-11-21T06:22:36;64152.00;;;-137.53
64904;BMP280;51401;48.882;12.598;2023-11-21T06:25:01;64150.03;;;-137.53
64904;BMP280;51401;48.882;12.598;2023-11-21T06:27:27;64150.03;;;-137.53
64904;BMP280;51401;48.882;12.598;2023-11-21T06:29:53;64150.03;;;-137.53
64904;BMP280;51401;48.882;12.598;2023-11-21T06:32:18;64152.00;;;-137.53
64904;BMP280;51401;48.882;12.598;2023-11-21T06:34:45;64152.00;;;-137.53
64904;BMP280;51401;48.882;12.598;2023-11-21T06:37:10;64154.00;;;-137.53
64904;BMP280;51401;48.882;12.598;2023-11-21T06:39:37;64148.03;;;-137.53
64904;BMP280;51401;48.882;12.598;2023-11-21T06:42:02;64148.03;;;-137.53
64904;BMP280;51401;48.882;12.598;2023-11-21T06:44:27;64152.00;;;-137.53
64904;BMP280;51401;48.882;12.598;2023-11-21T06:46:53;64150.03;;;-137.53
64904;BMP280;51401;48.882;12.598;2023-11-21T06:49:18;64148.03;;;-137.53
64904;BMP280;51401;48.882;12.598;2023-11-21T06:51:43;64150.03;;;-137.53
64904;BMP280;51401;48.882;12.598;2023-11-21T06:54:08;64150.03;;;-137.53
64904;BMP280;51401;48.882;12.598;2023-11-21T06:56:34;64152.00;;;-137.53
64904;BMP280;51401;48.882;12.598;2023-11-21T06:58:59;64148.03;;;-137.53
64904;BMP280;51401;48.882;12.598;2023-11-21T07:01:24;64150.03;;;-137.53
64904;BMP280;51401;48.882;12.598;2023-11-21T07:03:50;64148.03;;;-137.53
64904;BMP280;51401;48.882;12.598;2023-11-21T07:06:15;64150.03;;;-137.53
64904;BMP280;51401;48.882;12.598;2023-11-21T07:08:40;64148.03;;;-137.53
64904;BMP280;51401;48.882;12.598;2023-11-21T07:11:06;64150.03;;;-137.53
64904;BMP280;51401;48.882;12.598;2023-11-21T07:13:32;64152.00;;;-137.53
64904;BMP280;51401;48.882;12.598;2023-11-21T07:15:59;64150.03;;;-137.53
64904;BMP280;51401;48.882;12.598;2023-11-21T07:18:24;64150.03;;;-137.53
64904;BMP280;51401;48.882;12.598;2023-11-21T07:20:49;64152.00;;;-137.53
64904;BMP280;51401;48.882;12.598;2023-11-21T07:23:15;64152.00;;;-137.53
64904;BMP280;51401;48.882;12.598;2023-11-21T07:25:40;64146.03;;;-137.53
64904;BMP280;51401;48.882;12.598;2023-11-21T07:28:06;64152.00;;;-137.53
64904;BMP280;51401;48.882;12.598;2023-11-21T07:30:32;64150.03;;;-137.53
64904;BMP280;51401;48.882;12.598;2023-11-21T07:32:58;64148.03;;;-137.53
64904;BMP280;51401;48.882;12.598;2023-11-21T07:35:23;64150.03;;;-137.53
64904;BMP280;51401;48.882;12.598;2023-11-21T07:37:49;64148.03;;;-137.53
64904;BMP280;51401;48.882;12.598;2023-11-21T07:40:14;64150.03;;;-137.53
64904;BMP280;51401;48.882;12.598;2023-11-21T07:42:41;64150.03;;;-137.53
64904;BMP280;51401;48.882;12.598;2023-11-21T07:45:08;64150.03;;;-137.53
64904;BMP280;51401;48.882;12.598;2023-11-21T07:47:33;64146.03;;;-137.53
64904;BMP280;51401;48.882;12.598;2023-11-21T07:50:00;64152.00;;;-137.53
64904;BMP280;51401;48.882;12.598;2023-11-21T07:52:25;64146.03;;;-137.53
64904;BMP280;51401;48.882;12.598;2023-11-21T07:54:50;64148.03;;;-137.53
64904;BMP280;51401;48.882;12.598;2023-11-21T07:57:16;64150.03;;;-137.53
64904;BMP280;51401;48.882;12.598;2023-11-21T07:59:41;64150.03;;;-137.53
64904;BMP280;51401;48.882;12.598;2023-11-21T08:02:07;64148.03;;;-137.53
64904;BMP280;51401;48.882;12.598;2023-11-21T08:04:32;64148.03;;;-137.53
64904;BMP280;51401;48.882;12.598;2023-11-21T08:06:58;64148.03;;;-137.53
64904;BMP280;51401;48.882;12.598;2023-11-21T08:09:23;64146.03;;;-137.53
64904;BMP280;51401;48.882;12.598;2023-11-21T08:11:49;64152.00;;;-137.53
64904;BMP280;51401;48.882;12.598;2023-11-21T08:14:14;64148.03;;;-137.53
64904;BMP280;51401;48.882;12.598;2023-11-21T08:16:40;64150.03;;;-137.53
64904;BMP280;51401;48.882;12.598;2023-11-21T08:19:05;64152.00;;;-137.53
64904;BMP280;51401;48.882;12.598;2023-11-21T08:21:31;64150.03;;;-137.53
64904;BMP280;51401;48.882;12.598;2023-11-21T08:23:56;64148.03;;;-137.53
64904;BMP280;51401;48.882;12.598;2023-11-21T08:26:22;64148.03;;;-137.53
64904;BMP280;51401;48.882;12.598;2023-11-21T08:28:47;64146.03;;;-137.53
64904;BMP280;51401;48.882;12.598;2023-11-21T08:31:13;64148.03;;;-137.53
64904;BMP280;51401;48.882;12.598;2023-11-21T08:33:38;64148.03;;;-137.53
64904;BMP280;51401;48.882;12.598;2023-11-21T08:36:10;64148.03;;;-137.53
64904;BMP280;51401;48.882;12.598;2023-11-21T08:38:37;64150.03;;;-137.53
64904;BMP280;51401;48.882;12.598;2023-11-21T08:41:05;64146.03;;;-137.53
64904;BMP280;51401;48.882;12.598;2023-11-21T08:43:35;64148.03;;;-137.53
64904;BMP280;51401;48.882;12.598;2023-11-21T08:46:08;64148.03;;;-137.53
64904;BMP280;51401;48.882;12.598;2023-11-21T08:48:36;64144.06;;;-137.53
64904;BMP280;51401;48.882;12.598;2023-11-21T08:51:03;64148.03;;;-137.53
64904;BMP280;51401;48.882;12.598;2023-11-21T08:53:29;64148.03;;;-137.53
64904;BMP280;51401;48.882;12.598;2023-11-21T08:55:54;64148.03;;;-137.53
64904;BMP280;51401;48.882;12.598;2023-11-21T08:58:19;64150.03;;;-137.53
64904;BMP280;51401;48.882;12.598;2023-11-21T09:00:45;64148.03;;;-137.53
64904;BMP280;51401;48.882;12.598;2023-11-21T09:03:12;64146.03;;;-137.53
64904;BMP280;51401;48.882;12.598;2023-11-21T09:05:38;64148.03;;;-137.53
64904;BMP280;51401;48.882;12.598;2023-11-21T09:08:04;64148.03;;;-137.53
64904;BMP280;51401;48.882;12.598;2023-11-21T09:10:29;64146.03;;;-137.53
64904;BMP280;51401;48.882;12.598;2023-11-21T09:12:54;64148.03;;;-137.53
64904;BMP280;51401;48.882;12.598;2023-11-21T09:15:20;64148.03;;;-137.53
64904;BMP280;51401;48.882;12.598;2023-11-21T09:17:45;64148.03;;;-137.53
64904;BMP280;51401;48.882;12.598;2023-11-21T09:20:11;64150.03;;;-137.53
64904;BMP280;51401;48.882;12.598;2023-11-21T09:22:36;64148.03;;;-137.53
64904;BMP280;51401;48.882;12.598;2023-11-21T09:25:02;64146.03;;;-137.53
64904;BMP280;51401;48.882;12.598;2023-11-21T09:27:30;64144.06;;;-137.53
64904;BMP280;51401;48.882;12.598;2023-11-21T09:29:56;64146.03;;;-137.53
64904;BMP280;51401;48.882;12.598;2023-11-21T09:32:23;64146.03;;;-137.53
64904;BMP280;51401;48.882;12.598;2023-11-21T09:34:49;64146.03;;;-137.53
64904;BMP280;51401;48.882;12.598;2023-11-21T09:37:15;64148.03;;;-137.53
64904;BMP280;51401;48.882;12.598;2023-11-21T09:39:41;64146.03;;;-137.53
64904;BMP280;51401;48.882;12.598;2023-11-21T09:42:16;64148.03;;;-137.53
64904;BMP280;51401;48.882;12.598;2023-11-21T09:45:01;64144.06;;;-137.53
64904;BMP280;51401;48.882;12.598;2023-11-21T09:47:29;64146.03;;;-137.53
64904;BMP280;51401;48.882;12.598;2023-11-21T09:49:56;64144.06;;;-137.53
64904;BMP280;51401;48.882;12.598;2023-11-21T09:52:25;64146.03;;;-137.53
64904;BMP280;51401;48.882;12.598;2023-11-21T09:54:52;64146.03;;;-137.53
64904;BMP280;51401;48.882;12.598;2023-11-21T09:57:19;64144.06;;;-137.53
64904;BMP280;51401;48.882;12.598;2023-11-21T09:59:46;64146.03;;;-137.53
64904;BMP280;51401;48.882;12.598;2023-11-21T10:02:12;64144.06;;;-137.53
64904;BMP280;51401;48.882;12.598;2023-11-21T10:04:39;64148.03;;;-137.53
64904;BMP280;51401;48.882;12.598;2023-11-21T10:07:05;64144.06;;;-137.53
64904;BMP280;51401;48.882;12.598;2023-11-21T10:09:35;64142.06;;;-137.53
64904;BMP280;51401;48.882;12.598;2023-11-21T10:12:03;64148.03;;;-137.53
64904;BMP280;51401;48.882;12.598;2023-11-21T10:14:34;64148.03;;;-137.53
64904;BMP280;51401;48.882;12.598;2023-11-21T10:17:00;64146.03;;;-137.53
64904;BMP280;51401;48.882;12.598;2023-11-21T10:19:26;64144.06;;;-137.53
64904;BMP280;51401;48.882;12.598;2023-11-21T10:21:52;64144.06;;;-137.53
64904;BMP280;51401;48.882;12.598;2023-11-21T10:24:17;64142.06;;;-137.53
64904;BMP280;51401;48.882;12.598;2023-11-21T10:26:43;64144.06;;;-137.53
64904;BMP280;51401;48.882;12.598;2023-11-21T10:29:09;64144.06;;;-137.53
64904;BMP280;51401;48.882;12.598;2023-11-21T10:31:37;64144.06;;;-137.53
64904;BMP280;51401;48.882;12.598;2023-11-21T10:34:15;64144.06;;;-137.53
64904;BMP280;51401;48.882;12.598;2023-11-21T10:36:41;64144.06;;;-137.53
64904;BMP280;51401;48.882;12.598;2023-11-21T10:39:06;64144.06;;;-137.53
64904;BMP280;51401;48.882;12.598;2023-11-21T10:41:33;64144.06;;;-137.53
64904;BMP280;51401;48.882;12.598;2023-11-21T10:44:00;64146.03;;;-137.53
64904;BMP280;51401;48.882;12.598;2023-11-21T10:46:27;64144.06;;;-137.53
64904;BMP280;51401;48.882;12.598;2023-11-21T10:48:53;64140.09;;;-137.53
64904;BMP280;51401;48.882;12.598;2023-11-21T10:51:20;64144.06;;;-137.53
64904;BMP280;51401;48.882;12.598;2023-11-21T10:53:45;64140.09;;;-137.53
64904;BMP280;51401;48.882;12.598;2023-11-21T10:56:14;64140.09;;;-137.53
64904;BMP280;51401;48.882;12.598;2023-11-21T10:58:43;64142.06;;;-137.53
64904;BMP280;51401;48.882;12.598;2023-11-21T11:01:09;64140.09;;;-137.53
64904;BMP280;51401;48.882;12.598;2023-11-21T11:03:37;64144.06;;;-137.53
64904;BMP280;51401;48.882;12.598;2023-11-21T11:06:06;64140.09;;;-137.53
64904;BMP280;51401;48.882;12.598;2023-11-21T11:08:36;64142.06;;;-137.53
64904;BMP280;51401;48.882;12.598;2023-11-21T11:11:03;64144.06;;;-137.53
64904;BMP280;51401;48.882;12.598;2023-11-21T11:13:28;64144.06;;;-137.53
64904;BMP280;51401;48.882;12.598;2023-11-21T11:16:00;64142.06;;;-137.53
64904;BMP280;51401;48.882;12.598;2023-11-21T11:18:32;64144.06;;;-137.53
64904;BMP280;51401;48.882;12.598;2023-11-21T11:24:05;64144.06;;;-137.53
64904;BMP280;51401;48.882;12.598;2023-11-21T11:27:15;64140.09;;;-137.53
64904;BMP280;51401;48.882;12.598;2023-11-21T11:29:45;64142.06;;;-137.53
64904;BMP280;51401;48.882;12.598;2023-11-21T11:32:37;64144.06;;;-137.53
64904;BMP280;51401;48.882;12.598;2023-11-21T11:37:55;64144.06;;;-137.53
64904;BMP280;51401;48.882;12.598;2023-11-21T11:40:38;64144.06;;;-137.53
64904;BMP280;51401;48.882;12.598;2023-11-21T11:43:03;64140.09;;;-137.53
64904;BMP280;51401;48.882;12.598;2023-11-21T11:45:33;64140.09;;;-137.53
64904;BMP280;51401;48.882;12.598;2023-11-21T11:48:02;64142.06;;;-137.53
64904;BMP280;51401;48.882;12.598;2023-11-21T11:50:29;64144.06;;;-137.53
64904;BMP280;51401;48.882;12.598;2023-11-21T11:53:12;64142.06;;;-137.53
64904;BMP280;51401;48.882;12.598;2023-11-21T11:55:37;64142.06;;;-137.53
64904;BMP280;51401;48.882;12.598;2023-11-21T11:58:05;64144.06;;;-137.53
64904;BMP280;51401;48.882;12.598;2023-11-21T12:00:34;64142.06;;;-137.53
64904;BMP280;51401;48.882;12.598;2023-11-21T12:03:04;64140.09;;;-137.53
64904;BMP280;51401;48.882;12.598;2023-11-21T12:05:31;64142.06;;;-137.53
64904;BMP280;51401;48.882;12.598;2023-11-21T12:08:00;64140.09;;;-137.53
64904;BMP280;51401;48.882;12.598;2023-11-21T12:10:28;64142.06;;;-137.53
64904;BMP280;51401;48.882;12.598;2023-11-21T12:12:55;64140.09;;;-137.53
64904;BMP280;51401;48.882;12.598;2023-11-21T12:15:21;64144.06;;;-137.53
64904;BMP280;51401;48.882;12.598;2023-11-21T12:17:47;64142.06;;;-137.53
64904;BMP280;51401;48.882;12.598;2023-11-21T12:20:15;64144.06;;;-137.53
64904;BMP280;51401;48.882;12.598;2023-11-21T12:22:50;64142.06;;;-137.53
64904;BMP280;51401;48.882;12.598;2023-11-21T12:25:27;64144.06;;;-137.53
64904;BMP280;51401;48.882;12.598;2023-11-21T12:27:54;64140.09;;;-137.53
64904;BMP280;51401;48.882;12.598;2023-11-21T12:30:24;64144.06;;;-137.53
64904;BMP280;51401;48.882;12.598;2023-11-21T12:32:54;64140.09;;;-137.53
64904;BMP280;51401;48.882;12.598;2023-11-21T12:35:31;64138.09;;;-137.53
64904;BMP280;51401;48.882;12.598;2023-11-21T12:37:59;64140.09;;;-137.53
64904;BMP280;51401;48.882;12.598;2023-11-21T12:40:26;64144.06;;;-137.53
64904;BMP280;51401;48.882;12.598;2023-11-21T12:42:54;64142.06;;;-137.53
64904;BMP280;51401;48.882;12.598;2023-11-21T12:45:23;64140.09;;;-137.53
64904;BMP280;51401;48.882;12.598;2023-11-21T12:48:05;64140.09;;;-137.53
64904;BMP280;51401;48.882;12.598;2023-11-21T12:50:36;64142.06;;;-137.53
64904;BMP280;51401;48.882;12.598;2023-11-21T12:53:04;64142.06;;;-137.53
64904;BMP280;51401;48.882;12.598;2023-11-21T12:55:32;64144.06;;;-137.53
64904;BMP280;51401;48.882;12.598;2023-11-21T12:58:01;64142.06;;;-137.53
64904;BMP280;51401;48.882;12.598;2023-11-21T13:00:36;64144.06;;;-137.53
64904;BMP280;51401;48.882;12.598;2023-11-21T13:03:07;64142.06;;;-137.53
64904;BMP280;51401;48.882;12.598;2023-11-21T13:05:39;64142.06;;;-137.53
64904;BMP280;51401;48.882;12.598;2023-11-21T13:08:06;64142.06;;;-137.53
64904;BMP280;51401;48.882;12.598;2023-11-21T13:10:34;64144.06;;;-137.53
64904;BMP280;51401;48.882;12.598;2023-11-21T13:13:02;64142.06;;;-137.53
64904;BMP280;51401;48.882;12.598;2023-11-21T13:15:31;64144.06;;;-137.53
64904;BMP280;51401;48.882;12.598;2023-11-21T13:17:58;64144.06;;;-137.53
64904;BMP280;51401;48.882;12.598;2023-11-21T13:20:26;64140.09;;;-137.53
64904;BMP280;51401;48.882;12.598;2023-11-21T13:22:54;64144.06;;;-137.53
64904;BMP280;51401;48.882;12.598;2023-11-21T13:25:22;64144.06;;;-137.53
64904;BMP280;51401;48.882;12.598;2023-11-21T13:27:47;64144.06;;;-137.53
64904;BMP280;51401;48.882;12.598;2023-11-21T13:30:13;64144.06;;;-137.53
64904;BMP280;51401;48.882;12.598;2023-11-21T13:32:45;64144.06;;;-137.53
64904;BMP280;51401;48.882;12.598;2023-11-21T13:35:12;64142.06;;;-137.53
64904;BMP280;51401;48.882;12.598;2023-11-21T13:37:48;64140.09;;;-137.53